Carimona, Minnesota
Current Conditions -  °F | °C
As of 10:15 AM on Friday 21 Nov 2014 (Local Time) from KFKA Reporting Station
Clear Clear  
Wind Chill:   Ceiling: Unl
Heat Index: 15°   Visibility: 10mi
Dew Point:   Wind: 15mph
Humidity: 71%   Direction: 170°S
Pressure: 30.24"   Gusts: NA
Location:  43.6343°N, 92.1426°W
Report Text: KFKA 211615Z AUTO 17013KT 10SM CLR M09/M14 A3024 RMK AO2 T10921136
Loading
Personal Weather Stations






























Interactive Weather Map New forecast layout! Learn more

10-Day Weather Forecast

Advertisements
Track Severe Weather on mobile